Time,TemperatureF,DewpointF,PressureIn,WindDirection,WindDirectionDegrees,WindSpeedMPH,WindSpeedGustMPH,Humidity,HourlyPrecipIn,Conditions,Clouds,dailyrainin,SolarRadiationWatts/m^2,SoftwareType,DateUTC
2013-05-16 00:12:00,58.0,31.0,-100.00,WNW,283,15.0,25.0,36,0.00,,,0.00,0.000000,,2013-05-16 07:12:00,
2013-05-16 00:24:00,58.0,31.0,-100.00,WNW,283,15.0,25.0,36,0.00,,,0.00,0.000000,,2013-05-16 07:24:00,
2013-05-16 00:34:00,58.0,31.0,-100.00,WNW,283,15.0,25.0,36,0.00,,,0.00,0.000000,,2013-05-16 07:34:00,
2013-05-16 00:44:00,58.0,31.0,-100.00,WNW,283,15.0,25.0,36,0.00,,,0.00,0.000000,,2013-05-16 07:44:00,
2013-05-16 01:13:00,59.0,31.0,-100.00,West,274,12.0,21.0,35,0.00,,,0.00,0.000000,,2013-05-16 08:13:00,
2013-05-16 01:23:00,59.0,31.0,-100.00,West,274,12.0,21.0,35,0.00,,,0.00,0.000000,,2013-05-16 08:23:00,
2013-05-16 01:34:00,59.0,31.0,-100.00,West,274,12.0,21.0,35,0.00,,,0.00,0.000000,,2013-05-16 08:34:00,
2013-05-16 01:44:00,59.0,31.0,-100.00,West,274,12.0,21.0,35,0.00,,,0.00,0.000000,,2013-05-16 08:44:00,
2013-05-16 02:14:00,57.0,30.0,-100.00,WSW,253,6.0,17.0,36,0.00,,,0.00,0.000000,,2013-05-16 09:14:00,
2013-05-16 02:24:00,57.0,30.0,-100.00,WSW,253,6.0,17.0,36,0.00,,,0.00,0.000000,,2013-05-16 09:24:00,
2013-05-16 02:35:00,57.0,30.0,-100.00,WSW,253,6.0,17.0,36,0.00,,,0.00,0.000000,,2013-05-16 09:35:00,
2013-05-16 02:45:00,57.0,30.0,-100.00,WSW,253,6.0,17.0,36,0.00,,,0.00,0.000000,,2013-05-16 09:45:00,
2013-05-16 03:15:00,56.0,30.0,-100.00,West,276,9.0,16.0,37,0.00,,,0.00,0.000000,,2013-05-16 10:15:00,
2013-05-16 03:24:00,56.0,30.0,-100.00,West,276,9.0,16.0,37,0.00,,,0.00,0.000000,,2013-05-16 10:24:00,
2013-05-16 03:35:00,56.0,30.0,-100.00,West,276,9.0,16.0,37,0.00,,,0.00,0.000000,,2013-05-16 10:35:00,
2013-05-16 03:45:00,56.0,30.0,-100.00,West,276,9.0,16.0,37,0.00,,,0.00,0.000000,,2013-05-16 10:45:00,
2013-05-16 04:14:00,56.0,31.0,-100.00,West,278,7.0,11.0,38,0.00,,,0.00,0.000000,,2013-05-16 11:14:00,
2013-05-16 04:25:00,56.0,31.0,-100.00,West,278,7.0,11.0,38,0.00,,,0.00,0.000000,,2013-05-16 11:25:00,
2013-05-16 04:35:00,56.0,31.0,-100.00,West,278,7.0,11.0,38,0.00,,,0.00,0.000000,,2013-05-16 11:35:00,
2013-05-16 04:46:00,56.0,31.0,-100.00,West,278,7.0,11.0,38,0.00,,,0.00,0.000000,,2013-05-16 11:46:00,
2013-05-16 05:13:00,55.0,31.0,-100.00,SW,225,0.0,7.0,39,0.00,,,0.00,0.000000,,2013-05-16 12:13:00,
2013-05-16 05:23:00,55.0,31.0,-100.00,SW,225,0.0,7.0,39,0.00,,,0.00,0.000000,,2013-05-16 12:23:00,
2013-05-16 05:34:00,55.0,31.0,-100.00,SW,225,0.0,7.0,39,0.00,,,0.00,0.000000,,2013-05-16 12:34:00,
2013-05-16 05:45:00,55.0,31.0,-100.00,SW,225,0.0,7.0,39,0.00,,,0.00,0.000000,,2013-05-16 12:45:00,
2013-05-16 06:12:00,55.0,32.0,-100.00,SE,124,0.0,4.0,42,0.00,,,0.00,0.000000,,2013-05-16 13:12:00,
2013-05-16 06:26:00,55.0,32.0,-100.00,SE,124,0.0,4.0,42,0.00,,,0.00,0.000000,,2013-05-16 13:26:00,
2013-05-16 06:35:00,55.0,32.0,-100.00,SE,124,0.0,4.0,42,0.00,,,0.00,0.000000,,2013-05-16 13:35:00,
2013-05-16 06:43:00,55.0,32.0,-100.00,SE,124,0.0,4.0,42,0.00,,,0.00,0.000000,,2013-05-16 13:43:00,
2013-05-16 06:47:00,56.0,31.0,-100.00,WSW,253,5.0,9.0,38,0.00,,,0.00,9.000000,,2013-05-16 13:47:00,
2013-05-16 07:15:00,56.0,31.0,-100.00,WSW,253,5.0,9.0,38,0.00,,,0.00,9.000000,,2013-05-16 14:15:00,
2013-05-16 07:23:00,56.0,31.0,-100.00,WSW,253,5.0,9.0,38,0.00,,,0.00,9.000000,,2013-05-16 14:23:00,
2013-05-16 07:37:00,56.0,31.0,-100.00,WSW,253,5.0,9.0,38,0.00,,,0.00,9.000000,,2013-05-16 14:37:00,
2013-05-16 07:47:00,57.0,32.0,-100.00,SW,227,2.0,7.0,38,0.00,,,0.00,64.000000,,2013-05-16 14:47:00,
2013-05-16 08:17:00,57.0,32.0,-100.00,SW,227,2.0,7.0,38,0.00,,,0.00,64.000000,,2013-05-16 15:17:00,
2013-05-16 08:28:00,57.0,32.0,-100.00,SW,227,2.0,7.0,38,0.00,,,0.00,64.000000,,2013-05-16 15:28:00,
2013-05-16 08:40:00,57.0,32.0,-100.00,SW,227,2.0,7.0,38,0.00,,,0.00,64.000000,,2013-05-16 15:40:00,
2013-05-16 08:47:00,60.0,31.0,-100.00,NW,323,1.0,6.0,33,0.00,,,0.00,184.000000,,2013-05-16 15:47:00,
2013-05-16 09:19:00,60.0,31.0,-100.00,NW,323,1.0,6.0,33,0.00,,,0.00,184.000000,,2013-05-16 16:19:00,
2013-05-16 09:30:00,60.0,31.0,-100.00,NW,323,1.0,6.0,33,0.00,,,0.00,184.000000,,2013-05-16 16:30:00,
2013-05-16 09:40:00,60.0,-99.9,-100.00,NW,323,1.0,6.0,33,0.00,,,0.00,184.000000,,2013-05-16 16:40:00,
2013-05-16 09:47:00,60.0,-99.9,-100.00,WNW,291,9.0,14.0,39,0.00,,,-99.99,239.000000,,2013-05-16 16:47:00,
2013-05-16 10:20:00,60.0,35.0,-100.00,WNW,291,9.0,14.0,39,0.00,,,-99.99,239.000000,,2013-05-16 17:20:00,
2013-05-16 10:30:00,60.0,35.0,-100.00,WNW,291,9.0,14.0,39,0.00,,,-99.99,239.000000,,2013-05-16 17:30:00,
2013-05-16 10:40:00,60.0,35.0,-100.00,WNW,291,9.0,14.0,39,0.00,,,-99.99,239.000000,,2013-05-16 17:40:00,
2013-05-16 10:47:00,-999.0,-99.9,-100.00,WNW,289,13.0,19.0,42,0.00,,,0.00,298.000000,,2013-05-16 17:47:00,
2013-05-16 11:20:00,61.0,38.0,-100.00,WNW,289,13.0,19.0,42,0.00,,,0.00,298.000000,,2013-05-16 18:20:00,
2013-05-16 11:30:00,-999.0,-99.9,-100.00,WNW,289,13.0,19.0,42,0.00,,,0.00,298.000000,,2013-05-16 18:30:00,
2013-05-16 11:40:00,-999.0,-99.9,-100.00,WNW,289,13.0,19.0,42,0.00,,,0.00,298.000000,,2013-05-16 18:40:00,
2013-05-16 11:47:00,-999.0,-99.9,-100.00,West,277,12.0,19.0,41,0.00,,,0.00,436.000000,,2013-05-16 18:47:00,
2013-05-16 12:20:00,63.0,39.0,-100.00,West,277,12.0,19.0,41,0.00,,,0.00,436.000000,,2013-05-16 19:20:00,
2013-05-16 12:30:00,63.0,39.0,-100.00,West,277,12.0,19.0,41,0.00,,,0.00,436.000000,,2013-05-16 19:30:00,
2013-05-16 12:40:00,63.0,-99.9,-100.00,West,277,12.0,19.0,41,0.00,,,0.00,436.000000,,2013-05-16 19:40:00,
2013-05-16 12:47:00,63.0,40.0,-100.00,WNW,284,8.0,17.0,43,0.00,,,0.00,668.000000,,2013-05-16 19:47:00,
2013-05-16 13:20:00,63.0,-99.9,-100.00,WNW,284,8.0,17.0,43,0.00,,,0.00,668.000000,,2013-05-16 20:20:00,
2013-05-16 13:30:00,63.0,40.0,-100.00,WNW,284,8.0,17.0,43,0.00,,,0.00,668.000000,,2013-05-16 20:30:00,
2013-05-16 13:40:00,-999.0,-99.9,-100.00,WNW,284,8.0,17.0,43,0.00,,,0.00,668.000000,,2013-05-16 20:40:00,
2013-05-16 13:47:00,64.0,40.0,-100.00,West,261,7.0,13.0,42,0.00,,,0.00,747.000000,,2013-05-16 20:47:00,
2013-05-16 14:20:00,64.0,-99.9,-100.00,West,261,7.0,13.0,42,0.00,,,0.00,747.000000,,2013-05-16 21:20:00,
2013-05-16 14:29:00,64.0,40.0,-100.00,West,261,7.0,13.0,42,0.00,,,0.00,747.000000,,2013-05-16 21:29:00,
2013-05-16 14:38:00,64.0,40.0,-100.00,West,261,7.0,13.0,42,0.00,,,0.00,747.000000,,2013-05-16 21:38:00,
2013-05-16 14:47:00,61.0,43.0,-100.00,West,265,10.0,17.0,52,0.00,,,0.00,539.000000,,2013-05-16 21:47:00,
2013-05-16 15:20:00,61.0,43.0,-100.00,West,265,10.0,17.0,52,0.00,,,0.00,539.000000,,2013-05-16 22:20:00,
2013-05-16 15:30:00,61.0,43.0,-100.00,West,265,10.0,17.0,52,0.00,,,0.00,539.000000,,2013-05-16 22:30:00,
2013-05-16 15:40:00,61.0,43.0,-100.00,West,265,10.0,17.0,52,0.00,,,0.00,539.000000,,2013-05-16 22:40:00,
2013-05-16 16:16:00,56.0,45.0,-100.00,WSW,252,5.0,15.0,66,0.00,,,0.00,334.000000,,2013-05-16 23:16:00,
2013-05-16 16:24:00,56.0,45.0,-100.00,WSW,252,5.0,15.0,66,0.00,,,0.00,334.000000,,2013-05-16 23:24:00,
2013-05-16 16:34:00,56.0,45.0,-100.00,WSW,252,5.0,15.0,66,0.00,,,0.00,334.000000,,2013-05-16 23:34:00,
2013-05-16 16:45:00,56.0,45.0,-100.00,WSW,252,5.0,15.0,66,0.00,,,0.00,334.000000,,2013-05-16 23:45:00,
2013-05-16 17:13:00,61.0,44.0,-100.00,WSW,243,6.0,11.0,53,0.00,,,0.00,450.000000,,2013-05-17 00:13:00,
2013-05-16 17:22:00,61.0,44.0,-100.00,WSW,243,6.0,11.0,53,0.00,,,0.00,450.000000,,2013-05-17 00:22:00,
2013-05-16 17:33:00,61.0,44.0,-100.00,WSW,243,6.0,11.0,53,0.00,,,0.00,450.000000,,2013-05-17 00:33:00,
2013-05-16 17:43:00,61.0,44.0,-100.00,WSW,243,6.0,11.0,53,0.00,,,0.00,450.000000,,2013-05-17 00:43:00,
2013-05-16 18:12:00,61.0,40.0,-100.00,West,266,14.0,20.0,45,0.00,,,0.00,272.000000,,2013-05-17 01:12:00,
2013-05-16 18:23:00,61.0,40.0,-100.00,West,266,14.0,20.0,45,0.00,,,0.00,272.000000,,2013-05-17 01:23:00,
2013-05-16 18:32:00,61.0,40.0,-100.00,West,266,14.0,20.0,45,0.00,,,0.00,272.000000,,2013-05-17 01:32:00,
2013-05-16 18:43:00,61.0,40.0,-100.00,West,266,14.0,20.0,45,0.00,,,0.00,272.000000,,2013-05-17 01:43:00,
2013-05-16 19:11:00,55.0,42.0,-100.00,West,259,11.0,20.0,62,0.01,,,0.01,122.000000,,2013-05-17 02:11:00,
2013-05-16 19:21:00,55.0,42.0,-100.00,West,259,11.0,20.0,62,0.01,,,0.01,122.000000,,2013-05-17 02:21:00,
2013-05-16 19:32:00,55.0,42.0,-100.00,West,259,11.0,20.0,62,0.01,,,0.01,122.000000,,2013-05-17 02:32:00,
2013-05-16 19:41:00,55.0,42.0,-100.00,West,259,11.0,20.0,62,0.01,,,0.01,122.000000,,2013-05-17 02:41:00,
2013-05-16 20:11:00,56.0,41.0,-100.00,WNW,282,11.0,16.0,56,0.00,,,0.01,32.000000,,2013-05-17 03:11:00,
2013-05-16 20:22:00,56.0,41.0,-100.00,WNW,282,11.0,16.0,56,0.00,,,0.01,32.000000,,2013-05-17 03:22:00,
2013-05-16 20:34:00,56.0,41.0,-100.00,WNW,282,11.0,16.0,56,0.00,,,0.01,32.000000,,2013-05-17 03:34:00,
2013-05-16 20:43:00,56.0,41.0,-100.00,WNW,282,11.0,16.0,56,0.00,,,0.01,32.000000,,2013-05-17 03:43:00,
2013-05-16 21:13:00,53.0,39.0,-100.00,West,274,8.0,13.0,58,0.00,,,0.01,2.000000,,2013-05-17 04:13:00,
2013-05-16 21:23:00,53.0,39.0,-100.00,West,274,8.0,13.0,58,0.00,,,0.01,2.000000,,2013-05-17 04:23:00,
2013-05-16 21:33:00,53.0,39.0,-100.00,West,274,8.0,13.0,58,0.00,,,0.01,2.000000,,2013-05-17 04:33:00,
2013-05-16 21:43:00,53.0,39.0,-100.00,West,274,8.0,13.0,58,0.00,,,0.01,2.000000,,2013-05-17 04:43:00,
2013-05-16 22:14:00,54.0,38.0,-100.00,WNW,285,11.0,16.0,55,0.00,,,0.01,0.000000,,2013-05-17 05:14:00,
2013-05-16 22:22:00,54.0,38.0,-100.00,WNW,285,11.0,16.0,55,0.00,,,0.01,0.000000,,2013-05-17 05:22:00,
2013-05-16 22:32:00,54.0,38.0,-100.00,WNW,285,11.0,16.0,55,0.00,,,0.01,0.000000,,2013-05-17 05:32:00,
2013-05-16 22:42:00,54.0,38.0,-100.00,WNW,285,11.0,16.0,55,0.00,,,0.01,0.000000,,2013-05-17 05:42:00,
2013-05-16 23:11:00,53.0,39.0,-100.00,WNW,293,12.0,17.0,58,0.00,,,0.01,0.000000,,2013-05-17 06:11:00,
2013-05-16 23:21:00,53.0,39.0,-100.00,WNW,293,12.0,17.0,58,0.00,,,0.01,0.000000,,2013-05-17 06:21:00,
2013-05-16 23:32:00,53.0,39.0,-100.00,WNW,293,12.0,17.0,58,0.00,,,0.01,0.000000,,2013-05-17 06:32:00,
2013-05-16 23:42:00,53.0,39.0,-100.00,WNW,293,12.0,17.0,58,0.00,,,0.01,0.000000,,2013-05-17 06:42:00,